createdAt,value
2023-03-26T00:01:15.054Z,16.40
2023-03-26T00:03:42.921Z,16.20
2023-03-26T00:06:16.486Z,14.90
2023-03-26T00:08:45.919Z,14.30
2023-03-26T00:11:15.563Z,13.20
2023-03-26T00:13:43.728Z,13.50
2023-03-26T00:16:12.463Z,13.10
2023-03-26T00:18:40.014Z,12.40
2023-03-26T00:21:07.971Z,11.40
2023-03-26T00:23:36.068Z,10.80
2023-03-26T00:26:04.462Z,9.80
2023-03-26T00:28:31.375Z,13.80
2023-03-26T00:31:03.891Z,6.40
2023-03-26T00:33:31.614Z,4.20
2023-03-26T00:36:01.930Z,3.30
2023-03-26T00:38:30.516Z,2.60
2023-03-26T00:41:00.669Z,2.50
2023-03-26T00:43:27.385Z,2.20
2023-03-26T00:45:55.646Z,2.10
2023-03-26T00:48:31.562Z,2.50
2023-03-26T00:51:06.545Z,2.10
2023-03-26T00:53:33.209Z,2.30
2023-03-26T00:55:59.796Z,1.80
2023-03-26T00:58:27.547Z,2.00
2023-03-26T01:00:57.422Z,2.00
2023-03-26T01:03:28.090Z,2.20
2023-03-26T01:06:00.999Z,1.70
2023-03-26T01:08:44.967Z,1.80
2023-03-26T01:11:19.675Z,2.10
2023-03-26T01:14:06.703Z,1.90
2023-03-26T01:16:36.641Z,1.60
2023-03-26T01:19:09.040Z,1.90
2023-03-26T01:21:36.304Z,2.50
2023-03-26T01:24:05.219Z,2.10
2023-03-26T01:26:43.591Z,2.10
2023-03-26T01:29:43.084Z,1.90
2023-03-26T01:32:34.020Z,1.90
2023-03-26T01:35:08.284Z,2.10
2023-03-26T01:37:37.597Z,2.10
2023-03-26T01:40:26.440Z,2.20
2023-03-26T01:43:02.236Z,1.80
2023-03-26T01:45:34.687Z,2.20
2023-03-26T01:48:01.835Z,2.40
2023-03-26T01:50:28.830Z,2.50
2023-03-26T01:52:55.321Z,1.90
2023-03-26T01:55:27.180Z,2.50
2023-03-26T01:58:12.559Z,2.20
2023-03-26T02:01:02.613Z,2.40
2023-03-26T02:03:41.940Z,2.50
2023-03-26T02:06:17.237Z,2.30
2023-03-26T02:09:09.155Z,2.60
2023-03-26T02:11:38.500Z,2.50
2023-03-26T02:14:07.503Z,2.60
2023-03-26T02:16:34.687Z,2.70
2023-03-26T02:19:01.715Z,7.00
2023-03-26T02:21:28.903Z,6.00
2023-03-26T02:23:58.118Z,5.90
2023-03-26T02:26:25.143Z,8.50
2023-03-26T02:28:52.061Z,5.80
2023-03-26T02:31:18.570Z,5.60
2023-03-26T02:33:45.201Z,6.70
2023-03-26T02:36:12.014Z,5.10
2023-03-26T02:38:38.597Z,4.10
2023-03-26T02:41:05.829Z,3.80
2023-03-26T02:43:32.659Z,4.60
2023-03-26T02:45:59.325Z,5.00
2023-03-26T02:48:26.210Z,5.50
2023-03-26T02:50:53.159Z,4.90
2023-03-26T02:53:21.496Z,5.80
2023-03-26T02:55:48.403Z,5.60
2023-03-26T02:58:15.229Z,4.50
2023-03-26T03:00:41.712Z,5.30
2023-03-26T03:03:08.369Z,7.60
2023-03-26T03:05:35.911Z,6.40
2023-03-26T03:08:02.581Z,6.10
2023-03-26T03:10:32.866Z,7.10
2023-03-26T03:12:59.944Z,5.60
2023-03-26T03:15:26.938Z,6.40
2023-03-26T03:17:53.789Z,7.20
2023-03-26T03:20:20.337Z,7.10
2023-03-26T03:22:46.883Z,6.00
2023-03-26T03:25:13.936Z,5.50
2023-03-26T03:27:41.944Z,5.60
2023-03-26T03:30:11.092Z,7.20
2023-03-26T03:32:38.333Z,6.70
2023-03-26T03:35:06.177Z,5.10
2023-03-26T03:37:33.012Z,4.50
2023-03-26T03:39:59.718Z,3.80
2023-03-26T03:42:26.217Z,4.10
2023-03-26T03:44:52.930Z,4.60
2023-03-26T03:47:19.409Z,4.30
2023-03-26T03:49:45.947Z,5.20
2023-03-26T03:52:12.901Z,5.50
2023-03-26T03:54:39.613Z,6.50
2023-03-26T03:57:06.430Z,6.00
2023-03-26T03:59:32.965Z,6.00
2023-03-26T04:01:59.743Z,5.70
2023-03-26T04:04:26.611Z,6.50
2023-03-26T04:06:53.302Z,6.00
2023-03-26T04:09:19.954Z,7.40
2023-03-26T04:11:48.445Z,6.30
2023-03-26T04:14:14.979Z,6.20
2023-03-26T04:16:41.527Z,4.80
2023-03-26T04:19:08.263Z,4.00
2023-03-26T04:21:35.183Z,3.80
2023-03-26T04:24:02.010Z,3.40
2023-03-26T04:26:28.558Z,2.70
2023-03-26T04:29:00.167Z,2.90
2023-03-26T04:31:28.298Z,3.30
2023-03-26T04:33:58.810Z,2.10
2023-03-26T04:36:30.729Z,2.50
2023-03-26T04:38:58.458Z,2.10
2023-03-26T04:41:25.257Z,2.10
2023-03-26T04:43:56.002Z,2.40
2023-03-26T04:46:24.063Z,2.70
2023-03-26T04:48:52.141Z,2.80
2023-03-26T04:51:23.500Z,2.80
2023-03-26T04:56:34.608Z,2.60
2023-03-26T04:59:02.085Z,2.40
2023-03-26T05:01:29.036Z,1.90
2023-03-26T05:03:55.741Z,1.70
2023-03-26T05:06:22.745Z,1.80
2023-03-26T05:08:49.397Z,2.50
2023-03-26T05:11:15.820Z,2.10
2023-03-26T05:13:46.064Z,2.60
2023-03-26T05:16:13.505Z,1.90
2023-03-26T05:18:40.080Z,1.90
2023-03-26T05:21:06.817Z,1.80
2023-03-26T05:23:33.504Z,1.90
2023-03-26T05:26:00.196Z,1.80
2023-03-26T05:28:26.643Z,1.70
2023-03-26T05:30:54.431Z,1.60
2023-03-26T05:33:23.315Z,2.80
2023-03-26T05:36:06.008Z,3.50
2023-03-26T05:38:33.293Z,2.10
2023-03-26T05:41:06.137Z,1.80
2023-03-26T05:43:33.562Z,1.60
2023-03-26T05:46:00.396Z,1.40
2023-03-26T05:48:27.429Z,1.20
2023-03-26T05:50:57.030Z,1.80
2023-03-26T05:53:26.176Z,1.60
2023-03-26T05:55:53.718Z,1.30
2023-03-26T05:58:20.364Z,1.20
2023-03-26T06:00:47.110Z,1.40
2023-03-26T06:03:13.652Z,1.60
2023-03-26T06:05:40.475Z,1.20
2023-03-26T06:08:07.324Z,1.30
2023-03-26T06:10:33.843Z,1.60
2023-03-26T06:13:00.477Z,1.30
2023-03-26T06:15:28.671Z,1.20
2023-03-26T06:17:55.589Z,1.20
2023-03-26T06:20:22.247Z,1.10
2023-03-26T06:22:48.722Z,1.20
2023-03-26T06:25:15.273Z,1.00
2023-03-26T06:27:41.918Z,1.40
2023-03-26T06:30:09.065Z,2.00
2023-03-26T06:32:35.544Z,1.40
2023-03-26T06:35:02.129Z,1.40
2023-03-26T06:37:28.926Z,1.30
2023-03-26T06:39:55.368Z,0.80
2023-03-26T06:42:22.490Z,1.00
2023-03-26T06:45:09.688Z,1.30
2023-03-26T06:47:36.256Z,1.10
2023-03-26T06:50:02.798Z,1.20
2023-03-26T06:52:29.407Z,1.00
2023-03-26T06:54:56.028Z,1.20
2023-03-26T06:57:22.500Z,1.10
2023-03-26T06:59:48.969Z,0.90
2023-03-26T07:02:15.486Z,1.20
2023-03-26T07:04:41.915Z,1.40
2023-03-26T07:07:08.712Z,1.40
2023-03-26T07:09:35.220Z,1.00
2023-03-26T07:12:01.883Z,0.90
2023-03-26T07:14:28.755Z,1.00
2023-03-26T07:16:55.393Z,1.40
2023-03-26T07:19:21.900Z,1.20
2023-03-26T07:21:49.309Z,1.30
2023-03-26T07:24:16.284Z,1.30
2023-03-26T07:26:50.553Z,1.10
2023-03-26T07:29:26.250Z,1.20
2023-03-26T07:32:11.682Z,1.10
2023-03-26T07:34:51.437Z,0.90
2023-03-26T07:37:46.001Z,0.80
2023-03-26T07:40:37.021Z,0.90
2023-03-26T07:45:48.973Z,1.00
2023-03-26T07:48:19.293Z,0.70
2023-03-26T07:50:46.669Z,0.90
2023-03-26T07:53:14.311Z,1.80
2023-03-26T07:55:52.645Z,1.00
2023-03-26T07:58:41.194Z,1.00
2023-03-26T08:01:39.517Z,0.80
2023-03-26T08:04:23.747Z,1.10
2023-03-26T08:07:24.174Z,1.00
2023-03-26T08:10:06.428Z,1.00
2023-03-26T08:12:47.010Z,0.90
2023-03-26T08:15:19.630Z,1.60
2023-03-26T08:17:54.183Z,0.90
2023-03-26T08:20:24.215Z,1.30
2023-03-26T08:23:01.842Z,1.20
2023-03-26T08:25:31.460Z,1.10
2023-03-26T08:28:09.279Z,0.90
2023-03-26T08:30:35.944Z,1.10
2023-03-26T08:33:12.567Z,0.90
2023-03-26T08:35:40.144Z,0.80
2023-03-26T08:38:06.615Z,0.80
2023-03-26T08:41:05.527Z,0.90
2023-03-26T08:43:56.846Z,1.00
2023-03-26T08:49:36.421Z,0.90
2023-03-26T08:52:21.006Z,1.20
2023-03-26T08:55:01.770Z,1.00
2023-03-26T08:57:59.761Z,0.70
2023-03-26T09:00:50.142Z,0.80
2023-03-26T09:03:35.515Z,0.70
2023-03-26T09:06:13.134Z,1.10
2023-03-26T09:09:19.064Z,1.40
2023-03-26T09:11:52.027Z,0.90
2023-03-26T09:14:33.921Z,1.40
2023-03-26T09:17:09.669Z,1.60
2023-03-26T09:20:10.520Z,2.10
2023-03-26T09:23:01.362Z,1.00
2023-03-26T09:25:46.314Z,0.90
2023-03-26T09:28:50.377Z,1.20
2023-03-26T09:31:45.265Z,0.90
2023-03-26T09:34:28.018Z,1.00
2023-03-26T09:37:26.003Z,0.90
2023-03-26T09:40:16.417Z,1.40
2023-03-26T09:42:55.858Z,1.50
2023-03-26T09:45:50.532Z,1.20
2023-03-26T09:48:36.305Z,0.80
2023-03-26T09:51:08.740Z,2.10
2023-03-26T09:54:22.440Z,1.10
2023-03-26T09:57:10.240Z,1.20
2023-03-26T10:00:02.227Z,0.80
2023-03-26T10:02:47.994Z,1.00
2023-03-26T10:05:29.693Z,0.70
2023-03-26T10:08:23.471Z,0.70
2023-03-26T10:10:55.933Z,0.80
2023-03-26T10:13:25.648Z,0.60
2023-03-26T10:16:13.896Z,0.70
2023-03-26T10:18:56.048Z,1.10
2023-03-26T10:21:51.335Z,0.60
2023-03-26T10:24:24.473Z,0.70
2023-03-26T10:27:10.004Z,0.70
2023-03-26T10:29:57.683Z,0.80
2023-03-26T10:32:50.994Z,1.50
2023-03-26T10:35:21.987Z,1.30
2023-03-26T10:38:13.094Z,0.80
2023-03-26T10:41:02.174Z,0.90
2023-03-26T10:44:07.354Z,1.00
2023-03-26T10:46:54.171Z,1.30
2023-03-26T10:50:00.751Z,1.20
2023-03-26T10:52:40.407Z,0.70
2023-03-26T10:55:26.671Z,0.90
2023-03-26T10:57:56.509Z,0.70
2023-03-26T11:00:25.550Z,0.80
2023-03-26T11:03:01.654Z,1.60
2023-03-26T11:05:47.820Z,1.20
2023-03-26T11:08:50.372Z,0.90
2023-03-26T11:11:32.663Z,1.20
2023-03-26T11:14:18.994Z,0.80
2023-03-26T11:17:39.510Z,0.90
2023-03-26T11:20:15.782Z,0.70
2023-03-26T11:22:59.367Z,0.70
2023-03-26T11:25:40.423Z,0.70
2023-03-26T11:30:46.409Z,0.50
2023-03-26T11:33:22.940Z,0.80
2023-03-26T11:35:54.032Z,0.90
2023-03-26T11:38:31.912Z,0.80
2023-03-26T11:41:01.269Z,0.70
2023-03-26T11:43:36.284Z,0.60
2023-03-26T11:46:14.526Z,0.90
2023-03-26T11:48:48.310Z,0.70
2023-03-26T11:51:23.775Z,1.70
2023-03-26T11:53:50.322Z,2.00
2023-03-26T11:56:22.795Z,2.00
2023-03-26T11:59:04.482Z,3.90
2023-03-26T12:01:49.876Z,1.40
2023-03-26T12:04:21.153Z,0.90
2023-03-26T12:07:06.906Z,0.80
2023-03-26T12:09:33.442Z,0.70
2023-03-26T12:12:03.908Z,0.50
2023-03-26T12:14:34.558Z,0.70
2023-03-26T12:17:07.612Z,0.90
2023-03-26T12:19:40.967Z,1.30
2023-03-26T12:22:34.724Z,0.70
2023-03-26T12:25:03.029Z,1.10
2023-03-26T12:27:29.576Z,1.10
2023-03-26T12:30:09.171Z,0.70
2023-03-26T12:32:46.127Z,0.70
2023-03-26T12:35:26.551Z,1.30
2023-03-26T12:37:54.776Z,0.90
2023-03-26T12:40:35.451Z,1.20
2023-03-26T12:44:46.871Z,0.60
2023-03-26T12:47:59.418Z,0.60
2023-03-26T12:48:43.741Z,0.60
2023-03-26T12:51:38.545Z,0.60
2023-03-26T12:54:29.978Z,0.70
2023-03-26T12:57:16.990Z,0.70
2023-03-26T13:00:21.555Z,1.00
2023-03-26T13:03:15.449Z,1.20
2023-03-26T13:05:56.209Z,0.90
2023-03-26T13:08:53.485Z,1.80
2023-03-26T13:11:41.491Z,2.30
2023-03-26T13:14:44.836Z,2.80
2023-03-26T13:17:31.648Z,1.70
2023-03-26T13:20:33.432Z,1.10
2023-03-26T13:23:20.407Z,1.10
2023-03-26T13:26:08.621Z,1.00
2023-03-26T13:28:46.812Z,1.10
2023-03-26T13:31:31.561Z,1.40
2023-03-26T13:34:13.457Z,3.00
2023-03-26T13:37:03.914Z,1.20
2023-03-26T13:39:49.502Z,1.10
2023-03-26T13:42:22.747Z,1.00
2023-03-26T13:45:08.201Z,1.10
2023-03-26T13:47:39.300Z,0.90
2023-03-26T13:50:15.360Z,1.10
2023-03-26T13:52:48.749Z,0.60
2023-03-26T13:55:33.706Z,0.80
2023-03-26T13:58:16.846Z,0.80
2023-03-26T14:01:15.161Z,0.90
2023-03-26T14:04:00.268Z,0.80
2023-03-26T14:06:35.691Z,1.00
2023-03-26T14:09:22.761Z,1.00
2023-03-26T14:11:55.547Z,1.00
2023-03-26T14:14:43.629Z,0.60
2023-03-26T14:17:31.317Z,1.10
2023-03-26T14:20:35.510Z,0.90
2023-03-26T14:23:23.342Z,1.00
2023-03-26T14:26:25.649Z,0.70
2023-03-26T14:29:29.235Z,0.90
2023-03-26T14:32:24.783Z,1.20
2023-03-26T14:34:51.374Z,0.80
2023-03-26T14:37:43.141Z,0.90
2023-03-26T14:40:19.026Z,0.70
2023-03-26T14:42:56.378Z,0.80
2023-03-26T14:45:39.853Z,0.70
2023-03-26T14:48:30.625Z,0.70
2023-03-26T14:51:26.818Z,1.00
2023-03-26T14:54:07.934Z,1.00
2023-03-26T14:57:05.845Z,1.20
2023-03-26T15:00:17.283Z,0.70
2023-03-26T15:05:56.449Z,1.20
2023-03-26T15:08:50.868Z,1.20
2023-03-26T15:11:23.010Z,1.10
2023-03-26T15:14:02.922Z,1.40
2023-03-26T15:16:50.656Z,0.80
2023-03-26T15:19:46.386Z,0.80
2023-03-26T15:22:44.613Z,1.10
2023-03-26T15:25:45.687Z,1.50
2023-03-26T15:28:32.848Z,0.90
2023-03-26T15:31:24.294Z,1.00
2023-03-26T15:34:03.279Z,1.00
2023-03-26T15:37:04.279Z,1.20
2023-03-26T15:39:33.680Z,1.40
2023-03-26T15:42:19.271Z,1.20
2023-03-26T15:44:58.716Z,1.00
2023-03-26T15:47:52.040Z,1.30
2023-03-26T15:50:36.338Z,1.30
2023-03-26T15:53:30.222Z,1.40
2023-03-26T15:56:07.714Z,1.40
2023-03-26T15:58:46.452Z,1.50
2023-03-26T16:01:29.857Z,1.60
2023-03-26T16:04:36.149Z,1.80
2023-03-26T16:07:13.391Z,1.20
2023-03-26T16:10:16.787Z,1.90
2023-03-26T16:12:58.316Z,2.20
2023-03-26T16:15:29.070Z,2.40
2023-03-26T16:18:17.691Z,2.20
2023-03-26T16:20:54.944Z,3.20
2023-03-26T16:23:57.501Z,4.90
2023-03-26T16:26:44.688Z,3.90
2023-03-26T16:29:14.920Z,2.60
2023-03-26T16:32:10.139Z,2.70
2023-03-26T16:34:58.870Z,2.90
2023-03-26T16:37:48.267Z,2.80
2023-03-26T16:40:17.871Z,2.90
2023-03-26T16:43:13.908Z,3.00
2023-03-26T16:46:03.379Z,2.70
2023-03-26T16:48:45.865Z,3.10
2023-03-26T16:51:26.361Z,3.50
2023-03-26T16:54:08.465Z,3.70
2023-03-26T16:56:44.225Z,4.00
2023-03-26T16:59:32.994Z,3.80
2023-03-26T17:02:12.652Z,3.70
2023-03-26T17:04:44.300Z,4.00
2023-03-26T17:07:25.162Z,4.80
2023-03-26T17:09:56.284Z,3.50
2023-03-26T17:12:30.127Z,4.30
2023-03-26T17:15:41.138Z,4.60
2023-03-26T17:18:23.558Z,7.30
2023-03-26T17:21:25.607Z,14.90
2023-03-26T17:24:15.241Z,18.10
2023-03-26T17:27:07.707Z,16.80
2023-03-26T17:30:00.508Z,20.20
2023-03-26T17:32:56.531Z,25.50
2023-03-26T17:35:37.101Z,31.00
2023-03-26T17:38:04.437Z,30.60
2023-03-26T17:40:46.925Z,27.50
2023-03-26T17:43:46.074Z,29.20
2023-03-26T17:46:35.998Z,26.40
2023-03-26T17:49:02.489Z,35.80
2023-03-26T17:51:47.778Z,36.70
2023-03-26T17:54:33.203Z,48.00
2023-03-26T17:57:19.583Z,49.10
2023-03-26T17:59:47.968Z,35.20
2023-03-26T18:02:22.261Z,34.80
2023-03-26T18:04:53.593Z,37.60
2023-03-26T18:07:50.619Z,36.10
2023-03-26T18:10:39.195Z,34.90
2023-03-26T18:13:17.033Z,31.60
2023-03-26T18:15:54.418Z,53.60
2023-03-26T18:18:35.110Z,47.40
2023-03-26T18:21:05.818Z,47.70
2023-03-26T18:23:45.784Z,38.40
2023-03-26T18:26:16.360Z,44.90
2023-03-26T18:28:49.106Z,45.90
2023-03-26T18:31:22.646Z,43.80
2023-03-26T18:33:54.945Z,48.10
2023-03-26T18:36:24.719Z,48.30
2023-03-26T18:38:58.024Z,56.20
2023-03-26T18:41:37.989Z,55.90
2023-03-26T18:44:06.490Z,61.70
2023-03-26T18:46:34.187Z,74.40
2023-03-26T18:49:01.841Z,48.90
2023-03-26T18:51:30.700Z,33.90
2023-03-26T18:54:02.691Z,38.80
2023-03-26T18:56:31.078Z,38.40
2023-03-26T18:58:59.871Z,40.00
2023-03-26T19:01:33.104Z,42.80
2023-03-26T19:04:03.762Z,40.50
2023-03-26T19:06:33.369Z,45.60
2023-03-26T19:08:59.975Z,37.60
2023-03-26T19:11:28.157Z,56.30
2023-03-26T19:14:07.914Z,51.20
2023-03-26T19:16:34.971Z,47.50
2023-03-26T19:19:06.374Z,52.30
2023-03-26T19:24:01.762Z,47.70
2023-03-26T19:26:28.736Z,31.40
2023-03-26T19:28:56.404Z,27.20
2023-03-26T19:31:26.358Z,29.40
2023-03-26T19:34:11.605Z,23.30
2023-03-26T19:36:54.245Z,29.40
2023-03-26T19:39:34.701Z,37.20
2023-03-26T19:42:05.563Z,40.40
2023-03-26T19:44:36.704Z,43.90
2023-03-26T19:47:07.750Z,37.80
2023-03-26T19:52:20.301Z,34.10
2023-03-26T19:55:00.251Z,32.50
2023-03-26T19:57:31.963Z,57.00
2023-03-26T20:02:26.881Z,35.30
2023-03-26T20:04:53.720Z,31.00
2023-03-26T20:07:22.347Z,34.70
2023-03-26T20:10:01.930Z,30.50
2023-03-26T20:12:29.413Z,27.60
2023-03-26T20:14:55.837Z,28.00
2023-03-26T20:17:22.317Z,26.60
2023-03-26T20:19:48.849Z,24.80
2023-03-26T20:22:18.445Z,28.20
2023-03-26T20:24:44.887Z,31.40
2023-03-26T20:27:12.421Z,35.60
2023-03-26T20:29:38.946Z,34.60
2023-03-26T20:32:26.999Z,56.20
2023-03-26T20:34:53.802Z,77.10
2023-03-26T20:37:20.273Z,115.40
2023-03-26T20:39:46.729Z,159.70
2023-03-26T20:42:14.719Z,130.60
2023-03-26T20:44:42.824Z,82.50
2023-03-26T20:47:12.228Z,105.60
2023-03-26T20:49:38.928Z,97.20
2023-03-26T20:52:05.780Z,81.30
2023-03-26T20:54:32.316Z,82.30
2023-03-26T20:56:59.311Z,75.40
2023-03-26T20:59:27.375Z,75.30
2023-03-26T21:01:55.424Z,60.10
2023-03-26T21:04:22.070Z,48.50
2023-03-26T21:06:48.628Z,45.00
2023-03-26T21:09:17.890Z,38.30
2023-03-26T21:12:01.500Z,39.20
2023-03-26T21:14:34.496Z,40.70
2023-03-26T21:17:01.540Z,37.30
2023-03-26T21:19:28.793Z,33.70
2023-03-26T21:22:02.246Z,32.30
2023-03-26T21:24:43.498Z,34.80
2023-03-26T21:27:20.844Z,33.70
2023-03-26T21:29:47.850Z,33.30
2023-03-26T21:32:17.334Z,33.30
2023-03-26T21:34:55.741Z,30.00
2023-03-26T21:37:25.202Z,33.50
2023-03-26T21:39:52.154Z,32.90
2023-03-26T21:42:19.125Z,33.80
2023-03-26T21:44:45.977Z,32.70
2023-03-26T21:47:12.993Z,33.40
2023-03-26T21:49:39.894Z,31.30
2023-03-26T21:52:07.363Z,38.00
2023-03-26T21:54:34.400Z,36.00
2023-03-26T21:57:38.734Z,35.20
2023-03-26T22:00:12.800Z,34.50
2023-03-26T22:02:54.783Z,36.50
2023-03-26T22:06:04.118Z,37.40
2023-03-26T22:08:41.203Z,29.00
2023-03-26T22:11:09.719Z,30.70
2023-03-26T22:13:36.551Z,27.80
2023-03-26T22:16:03.238Z,29.00
2023-03-26T22:18:29.836Z,27.20
2023-03-26T22:20:57.817Z,19.70
2023-03-26T22:23:24.514Z,19.40
2023-03-26T22:25:50.994Z,14.20
2023-03-26T22:28:18.410Z,17.70
2023-03-26T22:30:45.391Z,21.40
2023-03-26T22:33:13.692Z,21.00
2023-03-26T22:35:41.855Z,21.50
2023-03-26T22:38:08.568Z,18.20
2023-03-26T22:40:35.673Z,17.60
2023-03-26T22:43:02.097Z,14.80
2023-03-26T22:45:28.667Z,13.30
2023-03-26T22:48:03.490Z,12.70
2023-03-26T22:50:32.182Z,11.10
2023-03-26T22:52:58.952Z,12.90
2023-03-26T22:55:28.719Z,14.40
2023-03-26T22:57:56.484Z,16.30
2023-03-26T23:00:23.121Z,17.00
2023-03-26T23:02:49.912Z,8.40
2023-03-26T23:05:17.790Z,7.90
2023-03-26T23:07:45.806Z,8.00
2023-03-26T23:10:12.890Z,8.40
2023-03-26T23:12:40.035Z,13.20
2023-03-26T23:15:07.497Z,16.40
2023-03-26T23:17:35.294Z,10.30
2023-03-26T23:20:07.100Z,8.20
2023-03-26T23:22:33.851Z,8.70
2023-03-26T23:25:00.589Z,8.60
2023-03-26T23:27:27.239Z,9.10
2023-03-26T23:29:53.767Z,8.30
2023-03-26T23:32:24.040Z,7.90
2023-03-26T23:34:53.658Z,7.40
2023-03-26T23:37:20.199Z,7.20
2023-03-26T23:39:46.648Z,6.90
2023-03-26T23:42:13.159Z,7.30
2023-03-26T23:44:39.634Z,7.80
2023-03-26T23:47:06.111Z,7.00
2023-03-26T23:49:32.560Z,7.00
2023-03-26T23:51:59.108Z,8.40
2023-03-26T23:54:25.607Z,6.90
2023-03-26T23:56:52.829Z,7.00
2023-03-26T23:59:19.300Z,6.80
